Trabzon International Airport
LTCG : now visible

Airfield :











YOU CAN JOIN US ON...

 
LOGIN :

Register | Disclaimer

   EN    FR    IT 

 









Legend :    VFR   Marginal VFR   IFR   Intensive IFR   Very Intensive IFR
Visi :
Ceiling :
>= 8 km
>= 3000ft
5 to 8 km
1000 to 3000 ft
1500m to 5 km
500 to 1000 ft
800 to 1500m
200 to 500 ft
< 800m
< 200 ft
Symbols :   Thunderstorms  Fog  Heavy snow  Heavy precipitations  Wind > 20 kt






- Airport Elevation : 104 ft
- IATA code : TZX


LTCG - Trabzon International

CURRENT METAR :
  • 041750Z 13007KT 9999 SCT035 11/07 Q1022 TEMPO 4000 BR BKN007

EXPIRED METARs :
  • 041720Z 12008KT 9999 SCT035 11/07 Q1022 TEMPO FM1800 4000 BR BKN007
  • 041650Z 11008KT 9999 SCT035 11/08 Q1022 TEMPO FM1800 4000 BR BKN007
  • 041620Z 12008KT 9999 SCT035 11/08 Q1022 NOSIG RMK RWY29 13007KT
  • 041550Z 12008KT 9999 SCT035 11/08 Q1023 NOSIG RMK RWY29 12008KT
  • 041520Z 11009KT 9999 SCT035 11/08 Q1023 NOSIG RMK RWY29 12007KT

TAF TAF LTCG
Valid from the 04 at 18:00 until the 05 at 18:00 UTC


041640Z 0418/0518 VRB02KT 9999 SCT035
TEMPO 0418/0421 4000 BR BKN007
PROB40 0421/0501 4000 BR BKN007



MET'MAP, your aeronautical weather chart ! - Copyright ORBIFLY December 2007 - Disclaimer

ORBIFLY MET'MAP TEAM :

Programming & Development : Alexandra Zaïnal
Concept & original design : Baudouin d'Aumeries
Assistance for programming : Marc-Olivier Méhu
Technical & hardware support : Manuel Goepfert

Contact : metmap@orbifly.com




SOURCES & CREDITS :

   NOAA       Earth
Advisory